Time;durP1;ratioP1;P1;durP2;ratioP2;P2;SDS_P1;SDS_P2;PMS_P1;PMS_P2;Temp;Humidity;BMP_temperature;BMP_pressure;BME280_temperature;BME280_humidity;BME280_pressure;Samples;Min_cycle;Max_cycle;Signal;HPM_P1;HPM_P2
2023/05/01 00:02:01;;;;;;;15.80;8.88;;;8.90;99.90;;;;;;5096702;28;20054;-37
2023/05/01 00:04:27;;;;;;;14.65;7.22;;;8.90;99.90;;;;;;5096363;28;20154;-38
2023/05/01 00:06:53;;;;;;;10.52;7.78;;;8.90;99.90;;;;;;5095810;28;20438;-35
2023/05/01 00:09:19;;;;;;;14.98;8.15;;;8.90;99.90;;;;;;5096453;28;20105;-37
2023/05/01 00:11:45;;;;;;;12.88;7.63;;;8.90;99.90;;;;;;5096773;28;20122;-40
2023/05/01 00:14:11;;;;;;;12.98;7.80;;;8.90;99.90;;;;;;5077780;28;20048;-37
2023/05/01 00:16:37;;;;;;;8.50;6.85;;;8.90;99.90;;;;;;5095355;28;20051;-45
2023/05/01 00:19:03;;;;;;;10.80;8.15;;;8.90;99.90;;;;;;5096422;28;20411;-37
2023/05/01 00:21:29;;;;;;;10.45;7.68;;;8.90;99.90;;;;;;5096182;28;20485;-38
2023/05/01 00:23:56;;;;;;;11.32;7.53;;;8.90;99.90;;;;;;5096684;28;20677;-39
2023/05/01 00:26:21;;;;;;;11.15;7.68;;;8.90;99.90;;;;;;5112528;27;20050;-39
2023/05/01 00:28:47;;;;;;;14.38;7.70;;;8.90;99.90;;;;;;5095648;28;20040;-37
2023/05/01 00:31:13;;;;;;;9.18;7.40;;;8.90;99.90;;;;;;5096342;28;20054;-37
2023/05/01 00:33:39;;;;;;;14.75;8.25;;;8.90;99.90;;;;;;5095449;28;20059;-39
2023/05/01 00:36:05;;;;;;;12.10;7.72;;;8.80;99.90;;;;;;5112644;27;20468;-38
2023/05/01 00:38:30;;;;;;;10.52;6.93;;;8.80;99.90;;;;;;5096115;28;20128;-39
2023/05/01 00:40:56;;;;;;;9.38;7.05;;;8.80;99.90;;;;;;5096528;28;20047;-35
2023/05/01 00:43:22;;;;;;;10.35;7.07;;;8.80;99.90;;;;;;5095285;28;20048;-42
2023/05/01 00:45:48;;;;;;;8.02;6.97;;;8.80;99.90;;;;;;5096448;28;20311;-38
2023/05/01 00:48:14;;;;;;;10.15;6.85;;;8.70;99.90;;;;;;5094489;28;20052;-39
2023/05/01 00:50:42;;;;;;;11.07;7.18;;;8.70;99.90;;;;;;5096302;28;20573;-38
2023/05/01 00:53:07;;;;;;;9.73;6.82;;;8.70;99.90;;;;;;5094872;28;20125;-38
2023/05/01 00:55:34;;;;;;;9.82;6.90;;;8.70;99.90;;;;;;5083320;28;20081;-39
2023/05/01 00:58:01;;;;;;;10.13;6.50;;;8.60;99.90;;;;;;5095447;28;20119;-36
2023/05/01 01:00:28;;;;;;;10.13;6.88;;;8.60;99.90;;;;;;5089603;28;20097;-36
2023/05/01 01:02:53;;;;;;;9.45;6.75;;;8.60;99.90;;;;;;5089911;28;20056;-38
2023/05/01 01:05:23;;;;;;;9.32;6.10;;;8.60;99.90;;;;;;5096304;28;20040;-38
2023/05/01 01:08:09;;;;;;;10.35;6.30;;;8.60;99.90;;;;;;5095357;28;20481;-35
2023/05/01 01:11:00;;;;;;;10.00;6.22;;;8.60;99.90;;;;;;5096052;28;20059;-36
2023/05/01 01:13:41;;;;;;;10.20;6.30;;;8.50;99.90;;;;;;5084654;28;20594;-38
2023/05/01 01:16:18;;;;;;;6.32;4.85;;;8.50;99.90;;;;;;5095333;28;20053;-37
2023/05/01 01:19:09;;;;;;;11.45;5.75;;;8.50;99.90;;;;;;5099137;27;20059;-42
2023/05/01 01:21:40;;;;;;;11.13;5.35;;;8.40;99.90;;;;;;5042113;28;20063;-35
2023/05/01 01:24:45;;;;;;;7.47;4.97;;;8.40;99.90;;;;;;5033191;28;20437;-42
2023/05/01 01:27:20;;;;;;;10.63;6.78;;;8.40;99.90;;;;;;5011305;28;20053;-39
2023/05/01 01:30:22;;;;;;;10.02;5.82;;;8.40;99.90;;;;;;5012054;28;20107;-38
2023/05/01 01:33:15;;;;;;;8.52;5.68;;;8.40;99.90;;;;;;5011170;28;20285;-35
2023/05/01 01:35:48;;;;;;;12.98;5.43;;;8.30;99.90;;;;;;4995132;28;20050;-38
2023/05/01 01:38:21;;;;;;;8.38;5.20;;;8.30;99.90;;;;;;5010968;28;20061;-40
2023/05/01 01:40:55;;;;;;;;;;;8.30;99.90;;;;;;5012726;28;20053;-41
2023/05/01 01:43:23;;;;;;;8.40;6.13;;;8.30;99.90;;;;;;5011591;28;19940;-39
2023/05/01 01:46:02;;;;;;;9.73;5.78;;;8.20;99.90;;;;;;5011541;28;20057;-35
2023/05/01 01:48:34;;;;;;;10.23;5.90;;;8.20;99.90;;;;;;5011104;28;20482;-42
2023/05/01 01:51:05;;;;;;;11.35;6.45;;;8.30;99.90;;;;;;5011322;28;20063;-40
2023/05/01 01:53:33;;;;;;;7.35;5.18;;;8.20;99.90;;;;;;4994198;28;20049;-39
2023/05/01 01:56:03;;;;;;;6.82;5.10;;;8.20;99.90;;;;;;5011687;28;20475;-36
2023/05/01 01:58:30;;;;;;;9.35;5.60;;;8.20;99.90;;;;;;5034350;28;20079;-36
2023/05/01 02:00:56;;;;;;;6.85;5.10;;;8.20;99.90;;;;;;5071209;28;20927;-40
2023/05/01 02:03:23;;;;;;;9.65;5.13;;;8.20;99.90;;;;;;5060968;28;20395;-39
2023/05/01 02:05:50;;;;;;;7.35;5.22;;;8.20;99.90;;;;;;5112277;27;20060;-40
2023/05/01 02:08:18;;;;;;;8.38;4.80;;;8.20;99.90;;;;;;5098258;28;20766;-37
2023/05/01 02:10:46;;;;;;;8.52;5.78;;;8.20;99.90;;;;;;5092525;28;20070;-36
2023/05/01 02:13:13;;;;;;;9.27;5.57;;;8.10;99.90;;;;;;5080216;28;20051;-39
2023/05/01 02:15:40;;;;;;;7.88;5.75;;;8.20;99.90;;;;;;5098606;28;20122;-38
2023/05/01 02:18:06;;;;;;;9.13;6.07;;;8.10;99.90;;;;;;5098727;28;20059;-41
2023/05/01 02:20:32;;;;;;;8.68;5.53;;;8.10;99.90;;;;;;5104580;27;20167;-36
2023/05/01 02:22:59;;;;;;;8.75;5.38;;;8.10;99.90;;;;;;5098564;28;20615;-43
2023/05/01 02:25:26;;;;;;;7.50;6.13;;;8.10;99.90;;;;;;5099169;28;20054;-44
2023/05/01 02:28:11;;;;;;;10.02;5.57;;;8.10;99.90;;;;;;5098128;28;20360;-35
2023/05/01 02:30:37;;;;;;;8.60;5.68;;;8.00;99.90;;;;;;5098369;28;20184;-36
2023/05/01 02:33:07;;;;;;;9.50;5.93;;;8.00;99.90;;;;;;5086137;28;20502;-37
2023/05/01 02:35:42;;;;;;;8.80;6.05;;;8.00;99.90;;;;;;5097762;28;20788;-35
2023/05/01 02:38:09;;;;;;;13.55;5.80;;;8.00;99.90;;;;;;5098328;28;20422;-36
2023/05/01 02:40:37;;;;;;;9.77;6.10;;;8.00;99.90;;;;;;5098564;28;20444;-38
2023/05/01 02:43:05;;;;;;;13.23;6.30;;;8.00;99.90;;;;;;5097907;28;20058;-36
2023/05/01 02:45:34;;;;;;;8.77;5.85;;;8.00;99.90;;;;;;5097613;28;20086;-40
2023/05/01 02:48:02;;;;;;;15.25;6.00;;;7.90;99.90;;;;;;5097792;28;20502;-35
2023/05/01 02:50:29;;;;;;;10.10;6.53;;;7.90;99.90;;;;;;5098275;28;20580;-43
2023/05/01 02:52:55;;;;;;;9.07;6.22;;;7.80;99.90;;;;;;5097639;28;20666;-36
2023/05/01 02:55:21;;;;;;;9.85;6.05;;;7.80;99.90;;;;;;5098274;28;20063;-39
2023/05/01 02:57:50;;;;;;;7.80;5.97;;;7.80;99.90;;;;;;5098103;28;20059;-37
2023/05/01 03:00:15;;;;;;;7.45;5.90;;;7.80;99.90;;;;;;5098984;28;20047;-44
2023/05/01 03:02:41;;;;;;;10.40;6.43;;;7.80;99.90;;;;;;5098471;27;20058;-37
2023/05/01 03:05:07;;;;;;;10.88;6.72;;;7.80;99.90;;;;;;5098291;28;20442;-39
2023/05/01 03:07:35;;;;;;;9.27;6.75;;;7.80;99.90;;;;;;5097867;28;20515;-37
2023/05/01 03:10:06;;;;;;;8.55;6.38;;;7.70;99.90;;;;;;5084552;28;20180;-37
2023/05/01 03:12:33;;;;;;;10.55;6.68;;;7.70;99.90;;;;;;5098151;28;20076;-42
2023/05/01 03:14:58;;;;;;;8.25;6.43;;;7.70;99.90;;;;;;5113627;27;21015;-37
2023/05/01 03:17:25;;;;;;;10.38;6.40;;;7.70;99.90;;;;;;5079694;28;20066;-38
2023/05/01 03:19:50;;;;;;;11.68;6.22;;;7.60;99.90;;;;;;5098147;27;20393;-45
2023/05/01 03:22:16;;;;;;;9.02;6.53;;;7.60;99.90;;;;;;5083579;28;20083;-38
2023/05/01 03:24:43;;;;;;;10.40;6.18;;;7.60;99.90;;;;;;5096824;28;20078;-38
2023/05/01 03:27:08;;;;;;;16.48;6.55;;;7.60;99.90;;;;;;5113076;27;20085;-39
2023/05/01 03:29:36;;;;;;;9.13;6.93;;;7.60;99.90;;;;;;5098362;28;20107;-37
2023/05/01 03:32:02;;;;;;;11.25;6.32;;;7.50;99.90;;;;;;5098157;28;20060;-42
2023/05/01 03:34:28;;;;;;;8.20;6.22;;;7.50;99.90;;;;;;5097072;28;20044;-42
2023/05/01 03:36:54;;;;;;;11.23;6.65;;;7.50;99.90;;;;;;5077658;28;20050;-40
2023/05/01 03:39:19;;;;;;;10.07;6.35;;;7.50;99.90;;;;;;5096890;28;20055;-38
2023/05/01 03:41:45;;;;;;;10.75;6.45;;;7.40;99.90;;;;;;5097254;28;20074;-40
2023/05/01 03:44:11;;;;;;;16.67;6.47;;;7.40;99.90;;;;;;5096475;28;20043;-36
2023/05/01 03:46:36;;;;;;;10.27;6.28;;;7.40;99.90;;;;;;5096250;28;20518;-38
2023/05/01 03:49:02;;;;;;;8.95;6.32;;;7.40;99.90;;;;;;5097171;28;20506;-37
2023/05/01 03:51:28;;;;;;;10.50;6.95;;;7.40;99.90;;;;;;5095608;28;20044;-40
2023/05/01 03:53:57;;;;;;;10.93;6.60;;;7.30;99.90;;;;;;5096859;28;20883;-38
2023/05/01 03:56:24;;;;;;;10.10;6.40;;;7.20;99.90;;;;;;5096020;28;20300;-39
2023/05/01 03:58:51;;;;;;;15.57;6.10;;;7.10;99.90;;;;;;5096676;28;20071;-36
2023/05/01 04:01:17;;;;;;;7.28;6.38;;;7.00;99.90;;;;;;5096192;28;20545;-38
2023/05/01 04:03:43;;;;;;;8.73;6.15;;;7.00;99.90;;;;;;5077407;28;20138;-35
2023/05/01 04:06:09;;;;;;;9.55;5.95;;;6.90;99.90;;;;;;5094594;28;20043;-41
2023/05/01 04:08:35;;;;;;;13.77;6.63;;;6.90;99.90;;;;;;5096117;28;20434;-40
2023/05/01 04:11:00;;;;;;;11.73;6.97;;;6.90;99.90;;;;;;5095203;28;20047;-38
2023/05/01 04:13:26;;;;;;;11.02;7.30;;;7.00;99.90;;;;;;5084157;28;20047;-41
2023/05/01 04:15:54;;;;;;;14.10;7.82;;;7.00;99.90;;;;;;5082903;28;20044;-42
2023/05/01 04:18:19;;;;;;;9.90;7.38;;;7.10;99.90;;;;;;5096442;28;20084;-38
2023/05/01 04:20:45;;;;;;;10.98;6.72;;;7.10;99.90;;;;;;5097431;27;20055;-38
2023/05/01 04:23:11;;;;;;;10.82;6.63;;;7.10;99.90;;;;;;5094944;28;20561;-36
2023/05/01 04:25:37;;;;;;;9.93;6.57;;;7.10;99.90;;;;;;5083095;28;20040;-37
2023/05/01 04:28:03;;;;;;;10.90;6.63;;;7.10;99.90;;;;;;5095580;28;20047;-38
2023/05/01 04:30:30;;;;;;;13.30;6.50;;;7.10;99.90;;;;;;5096143;28;20395;-37
2023/05/01 04:32:57;;;;;;;12.35;7.00;;;7.10;99.90;;;;;;5095457;28;20064;-40
2023/05/01 04:35:24;;;;;;;12.10;8.18;;;7.20;99.90;;;;;;5077185;28;20050;-40
2023/05/01 04:37:50;;;;;;;11.90;6.97;;;7.20;99.90;;;;;;5095008;28;20048;-39
2023/05/01 04:40:16;;;;;;;9.00;6.72;;;7.20;99.90;;;;;;5096053;28;20074;-39
2023/05/01 04:42:42;;;;;;;7.82;6.25;;;7.20;99.90;;;;;;5095707;28;20712;-39
2023/05/01 04:45:08;;;;;;;9.65;8.07;;;7.30;99.90;;;;;;5095696;28;20075;-41
2023/05/01 04:47:34;;;;;;;9.82;7.63;;;7.40;99.90;;;;;;5094907;28;20060;-39
2023/05/01 04:50:00;;;;;;;10.80;7.68;;;7.40;99.90;;;;;;5095900;28;20070;-38
2023/05/01 04:52:25;;;;;;;10.65;7.55;;;7.60;99.90;;;;;;5095546;28;20214;-37
2023/05/01 04:54:51;;;;;;;7.85;6.97;;;7.60;99.90;;;;;;5095825;28;20164;-40
2023/05/01 04:57:17;;;;;;;10.02;7.47;;;7.70;99.90;;;;;;5095259;28;20907;-37
2023/05/01 04:59:43;;;;;;;11.68;7.25;;;7.80;99.90;;;;;;5095730;28;20183;-36
2023/05/01 05:02:08;;;;;;;13.73;7.57;;;7.90;99.90;;;;;;5095577;28;20044;-36
2023/05/01 05:04:34;;;;;;;10.13;6.82;;;8.00;99.90;;;;;;5095312;28;20508;-38
2023/05/01 05:07:00;;;;;;;9.02;7.25;;;8.10;99.90;;;;;;5095142;28;20078;-36
2023/05/01 05:09:25;;;;;;;13.10;7.78;;;8.20;99.90;;;;;;5091416;28;20564;-39
2023/05/01 05:11:51;;;;;;;10.30;7.72;;;8.20;99.90;;;;;;5095449;28;20073;-41
2023/05/01 05:14:16;;;;;;;11.40;7.47;;;8.20;99.90;;;;;;5094209;28;20371;-43
2023/05/01 05:16:42;;;;;;;9.45;7.28;;;8.30;99.90;;;;;;5094243;28;20039;-38
2023/05/01 05:19:08;;;;;;;11.30;7.45;;;8.40;99.90;;;;;;5094716;28;20557;-38
2023/05/01 05:21:34;;;;;;;12.50;7.53;;;8.70;99.90;;;;;;5077078;28;20416;-36
2023/05/01 05:23:59;;;;;;;10.15;7.95;;;8.80;99.90;;;;;;5093628;28;20075;-40
2023/05/01 05:26:25;;;;;;;11.60;8.35;;;8.90;99.90;;;;;;5084331;28;20312;-37
2023/05/01 05:28:51;;;;;;;13.43;8.20;;;9.00;99.90;;;;;;5094947;28;20051;-36
2023/05/01 05:31:17;;;;;;;10.23;7.28;;;9.20;99.90;;;;;;5111187;27;20545;-39
2023/05/01 05:33:43;;;;;;;10.80;7.90;;;9.50;99.90;;;;;;5093662;28;20047;-37
2023/05/01 05:36:09;;;;;;;10.63;8.25;;;9.80;99.90;;;;;;5094705;28;20048;-35
2023/05/01 05:38:35;;;;;;;11.60;7.47;;;10.10;99.90;;;;;;5095297;28;20060;-39
2023/05/01 05:41:00;;;;;;;11.88;8.00;;;10.50;99.90;;;;;;5083591;28;20490;-38
2023/05/01 05:43:26;;;;;;;10.30;7.40;;;10.90;99.90;;;;;;5094714;28;20047;-36
2023/05/01 05:45:58;;;;;;;11.93;7.95;;;11.30;99.90;;;;;;5095452;28;20040;-38
2023/05/01 05:48:25;;;;;;;12.52;7.43;;;11.70;99.90;;;;;;5094924;28;20039;-39
2023/05/01 05:50:51;;;;;;;9.05;7.85;;;12.40;99.90;;;;;;5095414;28;20126;-38
2023/05/01 05:53:18;;;;;;;10.25;7.72;;;13.40;99.90;;;;;;5094004;28;20059;-39
2023/05/01 05:55:45;;;;;;;9.73;7.35;;;14.50;99.90;;;;;;5095068;28;20054;-42
2023/05/01 05:58:10;;;;;;;9.48;7.03;;;15.70;99.90;;;;;;5093945;28;20054;-38
2023/05/01 06:00:36;;;;;;;11.52;6.97;;;16.60;99.90;;;;;;5110137;28;20055;-43
2023/05/01 06:03:02;;;;;;;8.27;7.35;;;17.10;99.90;;;;;;5094527;28;20152;-38
2023/05/01 06:05:28;;;;;;;10.07;7.47;;;17.80;99.90;;;;;;5095453;28;20118;-44
2023/05/01 06:07:54;;;;;;;8.27;7.00;;;17.80;99.90;;;;;;5095185;28;20051;-36
2023/05/01 06:10:19;;;;;;;10.65;7.35;;;17.60;99.90;;;;;;5095097;28;20054;-38
2023/05/01 06:12:47;;;;;;;9.07;7.15;;;17.40;99.90;;;;;;5094399;28;20142;-39
2023/05/01 06:15:15;;;;;;;9.65;7.00;;;17.20;99.90;;;;;;5093083;28;20059;-39
2023/05/01 06:17:42;;;;;;;10.80;7.35;;;17.20;99.90;;;;;;5093762;28;20047;-38
2023/05/01 06:20:09;;;;;;;12.07;7.53;;;17.10;99.90;;;;;;5084853;28;20099;-42
2023/05/01 06:22:34;;;;;;;8.50;7.38;;;16.70;99.90;;;;;;5102087;28;20183;-42
2023/05/01 06:25:00;;;;;;;9.52;7.25;;;16.50;99.90;;;;;;5094270;28;20077;-39
2023/05/01 06:27:26;;;;;;;10.27;7.85;;;16.60;99.90;;;;;;5094413;28;20096;-37
2023/05/01 06:29:51;;;;;;;9.05;7.53;;;17.00;99.90;;;;;;5094774;28;20059;-40
2023/05/01 06:32:17;;;;;;;8.90;7.13;;;17.40;99.90;;;;;;5075930;28;20150;-40
2023/05/01 06:34:43;;;;;;;9.52;7.13;;;17.60;99.90;;;;;;5094915;28;20058;-38
2023/05/01 06:37:08;;;;;;;8.25;7.20;;;18.30;99.90;;;;;;5094107;28;20043;-39
2023/05/01 06:39:34;;;;;;;9.07;7.32;;;18.90;99.90;;;;;;5076497;28;20051;-37
2023/05/01 06:42:02;;;;;;;10.13;6.57;;;19.10;99.90;;;;;;5094535;28;20054;-44
2023/05/01 06:44:28;;;;;;;13.38;7.28;;;19.30;99.90;;;;;;5095267;28;20062;-45
2023/05/01 06:46:55;;;;;;;9.65;6.53;;;19.50;99.90;;;;;;5097810;28;20051;-40
2023/05/01 06:49:21;;;;;;;8.80;6.82;;;19.90;99.90;;;;;;5089879;28;20094;-41
2023/05/01 06:51:47;;;;;;;9.80;6.68;;;20.10;99.90;;;;;;5096500;28;20043;-40
2023/05/01 06:54:12;;;;;;;8.35;6.47;;;20.40;99.50;;;;;;5097196;28;20051;-38
2023/05/01 06:56:38;;;;;;;9.68;6.13;;;20.60;99.40;;;;;;5097849;28;20065;-39
2023/05/01 06:59:04;;;;;;;7.40;6.57;;;21.20;99.40;;;;;;5098813;28;20092;-39
2023/05/01 07:01:30;;;;;;;9.98;6.68;;;20.70;98.30;;;;;;5098288;28;20047;-38
2023/05/01 07:03:56;;;;;;;7.40;6.55;;;20.30;99.40;;;;;;5098475;28;20222;-43
2023/05/01 07:06:21;;;;;;;11.35;7.18;;;20.10;99.90;;;;;;5097883;28;20510;-48
2023/05/01 07:08:47;;;;;;;8.85;6.97;;;19.50;99.10;;;;;;5098290;28;20607;-41
2023/05/01 07:11:13;;;;;;;10.15;6.57;;;19.60;99.90;;;;;;5097892;28;20051;-38
2023/05/01 07:13:38;;;;;;;11.80;7.07;;;19.70;99.80;;;;;;5087946;28;20218;-42
2023/05/01 07:16:04;;;;;;;8.85;6.97;;;19.50;98.90;;;;;;5096955;28;20050;-41
2023/05/01 07:18:30;;;;;;;7.70;5.85;;;19.40;99.90;;;;;;5097874;28;20046;-38
2023/05/01 07:20:55;;;;;;;8.88;5.78;;;19.10;99.90;;;;;;5098096;28;20086;-43
2023/05/01 07:23:22;;;;;;;8.57;5.95;;;19.10;99.90;;;;;;5102805;27;20162;-43
2023/05/01 07:25:48;;;;;;;8.00;5.63;;;19.00;99.90;;;;;;5098068;28;20104;-43
2023/05/01 07:28:13;;;;;;;8.18;6.45;;;18.80;99.90;;;;;;5097235;28;20048;-41
2023/05/01 07:30:39;;;;;;;10.50;6.25;;;18.60;99.90;;;;;;5081416;28;20055;-36
2023/05/01 07:33:05;;;;;;;9.88;6.97;;;18.50;99.90;;;;;;5097646;28;20079;-39
2023/05/01 07:35:31;;;;;;;10.13;7.07;;;18.40;99.90;;;;;;5096922;28;20504;-40
2023/05/01 07:37:57;;;;;;;11.95;6.50;;;18.50;99.90;;;;;;5096526;28;20426;-43
2023/05/01 07:40:23;;;;;;;9.35;6.25;;;18.40;99.90;;;;;;5097029;28;20051;-37
2023/05/01 07:42:49;;;;;;;9.93;6.45;;;18.20;99.90;;;;;;5097022;28;20058;-39
2023/05/01 07:45:15;;;;;;;7.90;6.20;;;18.40;99.90;;;;;;5096976;28;20047;-43
2023/05/01 07:47:41;;;;;;;10.85;6.38;;;18.20;99.90;;;;;;5096795;28;20085;-39
2023/05/01 07:50:10;;;;;;;11.35;6.03;;;18.20;99.90;;;;;;5097025;28;20075;-43
2023/05/01 07:52:36;;;;;;;10.48;5.82;;;18.10;99.90;;;;;;5101869;27;20039;-44
2023/05/01 07:55:03;;;;;;;7.70;5.95;;;18.10;99.90;;;;;;5097139;27;20288;-44
2023/05/01 07:57:29;;;;;;;8.32;5.70;;;18.00;99.60;;;;;;5095411;28;20048;-36
2023/05/01 07:59:55;;;;;;;10.60;6.18;;;17.90;99.90;;;;;;5092372;28;20815;-39
2023/05/01 08:02:21;;;;;;;10.15;6.03;;;17.90;99.90;;;;;;5096549;28;20131;-40
2023/05/01 08:04:47;;;;;;;9.23;5.00;;;17.90;99.90;;;;;;5111675;27;20048;-45
2023/05/01 08:07:13;;;;;;;7.22;5.22;;;18.00;99.50;;;;;;5097894;27;20047;-42
2023/05/01 08:09:39;;;;;;;8.68;5.85;;;17.90;99.60;;;;;;5111312;27;20051;-36
2023/05/01 08:12:05;;;;;;;10.43;5.32;;;17.90;99.50;;;;;;5096818;27;20039;-41
2023/05/01 08:14:31;;;;;;;8.10;5.38;;;18.00;99.90;;;;;;5116560;27;20052;-40
2023/05/01 08:16:56;;;;;;;7.57;5.43;;;18.10;99.90;;;;;;5098181;27;20040;-40
2023/05/01 08:19:22;;;;;;;8.35;5.40;;;18.10;99.90;;;;;;5095555;28;20653;-41
2023/05/01 08:21:48;;;;;;;7.78;5.18;;;18.10;99.90;;;;;;5100819;27;20043;-44
2023/05/01 08:24:13;;;;;;;10.15;6.00;;;18.00;99.00;;;;;;5094982;28;20546;-43
2023/05/01 08:26:39;;;;;;;10.48;5.72;;;18.20;99.20;;;;;;5086183;28;20406;-37
2023/05/01 08:29:05;;;;;;;7.35;5.78;;;18.20;99.80;;;;;;5096171;28;20104;-40
2023/05/01 08:31:31;;;;;;;9.73;5.22;;;18.20;98.70;;;;;;5097785;27;20050;-40
2023/05/01 08:33:56;;;;;;;10.10;5.50;;;18.30;99.90;;;;;;5062815;28;20071;-43
2023/05/01 08:36:22;;;;;;;10.07;5.63;;;18.60;99.90;;;;;;5085428;28;20105;-41
2023/05/01 08:38:48;;;;;;;6.75;5.32;;;18.70;99.80;;;;;;5096249;28;20054;-40
2023/05/01 08:41:22;;;;;;;9.57;5.40;;;18.70;99.30;;;;;;5096936;28;20050;-45
2023/05/01 08:43:48;;;;;;;10.38;5.65;;;18.80;99.00;;;;;;5097301;27;20031;-43
2023/05/01 08:46:28;;;;;;;8.75;5.68;;;18.60;99.10;;;;;;5097771;27;20028;-46
2023/05/01 08:48:57;;;;;;;12.32;6.13;;;18.90;99.20;;;;;;5094817;28;20044;-42
2023/05/01 08:51:24;;;;;;;10.93;6.00;;;18.90;99.50;;;;;;5063103;28;20044;-41
2023/05/01 08:53:52;;;;;;;9.90;5.60;;;18.80;99.50;;;;;;5093826;28;20047;-42
2023/05/01 08:56:22;;;;;;;7.97;5.43;;;18.70;99.00;;;;;;5093087;28;20284;-40
2023/05/01 08:58:49;;;;;;;7.97;5.53;;;18.70;99.40;;;;;;5106908;27;20043;-39
2023/05/01 09:01:16;;;;;;;5.78;4.82;;;19.00;99.60;;;;;;5104185;27;20074;-43
2023/05/01 09:03:43;;;;;;;6.72;4.65;;;19.00;98.80;;;;;;5097831;27;20074;-36
2023/05/01 09:06:10;;;;;;;5.82;4.38;;;19.10;98.30;;;;;;5112127;27;20694;-40
2023/05/01 09:08:36;;;;;;;7.28;4.90;;;19.10;99.30;;;;;;5104735;27;20058;-44
2023/05/01 09:11:03;;;;;;;8.93;4.30;;;19.10;99.00;;;;;;5099199;27;20043;-37
2023/05/01 09:13:30;;;;;;;12.20;5.43;;;19.10;99.30;;;;;;5104063;27;20043;-43
2023/05/01 09:15:56;;;;;;;8.23;4.80;;;19.20;99.40;;;;;;5111546;27;20046;-40
2023/05/01 09:18:22;;;;;;;10.98;5.05;;;19.30;99.40;;;;;;5095473;28;20075;-39
2023/05/01 09:20:48;;;;;;;7.15;4.68;;;19.40;99.70;;;;;;5095506;28;20051;-45
2023/05/01 09:23:13;;;;;;;7.53;4.82;;;19.40;99.40;;;;;;5079377;28;20032;-44
2023/05/01 09:25:40;;;;;;;7.10;4.30;;;19.40;99.00;;;;;;5096096;28;20047;-37
2023/05/01 09:28:06;;;;;;;6.78;5.10;;;19.50;99.70;;;;;;5094343;28;20400;-44
2023/05/01 09:30:36;;;;;;;7.47;5.05;;;19.30;98.40;;;;;;5085145;27;20055;-39
2023/05/01 09:33:12;;;;;;;8.32;5.35;;;19.30;99.60;;;;;;5121936;27;20385;-41
2023/05/01 09:35:48;;;;;;;9.20;5.55;;;19.20;99.90;;;;;;5092902;28;20050;-42
2023/05/01 09:38:26;;;;;;;7.95;5.00;;;18.90;99.90;;;;;;5081192;28;20123;-36
2023/05/01 09:40:55;;;;;;;9.52;5.25;;;19.00;99.90;;;;;;5094724;28;20051;-39
2023/05/01 09:43:28;;;;;;;8.10;5.68;;;19.30;99.90;;;;;;5093602;28;20049;-43
2023/05/01 09:46:02;;;;;;;6.80;4.72;;;19.30;99.90;;;;;;5084026;28;20557;-36
2023/05/01 09:48:29;;;;;;;8.52;4.78;;;19.50;99.90;;;;;;5097100;28;20043;-46
2023/05/01 09:50:55;;;;;;;9.90;4.28;;;19.50;99.90;;;;;;5105410;28;21080;-39
2023/05/01 09:53:39;;;;;;;9.00;4.43;;;19.60;99.90;;;;;;5097873;28;20039;-42
2023/05/01 09:56:05;;;;;;;6.45;4.75;;;19.40;99.80;;;;;;5094905;28;20177;-41
2023/05/01 09:58:31;;;;;;;6.68;3.72;;;19.60;99.90;;;;;;5081880;28;20059;-42
2023/05/01 10:00:57;;;;;;;9.00;4.20;;;19.90;99.90;;;;;;5102855;28;20316;-36
2023/05/01 10:03:23;;;;;;;7.07;3.75;;;20.20;99.90;;;;;;5082187;28;20163;-42
2023/05/01 10:05:49;;;;;;;6.43;3.40;;;20.20;99.70;;;;;;5099810;28;20065;-44
2023/05/01 10:08:15;;;;;;;6.15;4.40;;;20.20;98.60;;;;;;5096980;28;20046;-37
2023/05/01 10:10:42;;;;;;;8.57;4.00;;;20.20;98.20;;;;;;5093690;28;20309;-38
2023/05/01 10:13:17;;;;;;;6.60;3.40;;;20.00;97.70;;;;;;5093693;28;20079;-41
2023/05/01 10:15:46;;;;;;;6.90;4.20;;;20.10;98.20;;;;;;5075346;28;20042;-43
2023/05/01 10:18:13;;;;;;;9.25;3.88;;;20.00;98.60;;;;;;5094994;28;20067;-38
2023/05/01 10:20:39;;;;;;;7.85;4.05;;;20.10;99.00;;;;;;5078857;28;20050;-41
2023/05/01 10:23:04;;;;;;;8.57;4.05;;;20.10;99.00;;;;;;5098876;28;20059;-41
2023/05/01 10:25:31;;;;;;;6.70;4.22;;;20.10;99.30;;;;;;5098931;28;20039;-37
2023/05/01 10:27:57;;;;;;;7.15;4.28;;;20.20;99.50;;;;;;5094405;28;20457;-40
2023/05/01 10:30:25;;;;;;;6.47;3.50;;;20.20;99.20;;;;;;5072941;27;20053;-38
2023/05/01 10:32:51;;;;;;;5.60;3.17;;;20.10;99.40;;;;;;5127018;27;20042;-40
2023/05/01 10:35:22;;;;;;;5.15;3.10;;;20.20;99.30;;;;;;5085198;28;20055;-37
2023/05/01 10:37:57;;;;;;;5.47;3.92;;;20.20;99.60;;;;;;5100178;27;20050;-42
2023/05/01 10:40:38;;;;;;;7.10;3.65;;;20.10;98.80;;;;;;5057314;27;20055;-41
2023/05/01 10:43:28;;;;;;;7.43;3.40;;;20.00;98.30;;;;;;5087812;28;20047;-45
2023/05/01 10:46:08;;;;;;;6.32;3.15;;;20.00;99.50;;;;;;5079279;27;20372;-50
2023/05/01 10:48:38;;;;;;;7.47;3.20;;;20.10;99.90;;;;;;5097360;28;20055;-40
2023/05/01 10:51:10;;;;;;;8.35;3.80;;;20.30;99.20;;;;;;5097286;28;20241;-38
2023/05/01 10:53:37;;;;;;;5.57;3.47;;;20.20;98.20;;;;;;5076324;28;20150;-44
2023/05/01 10:56:04;;;;;;;6.05;2.63;;;20.30;98.90;;;;;;5097250;28;20075;-40
2023/05/01 10:58:37;;;;;;;6.22;2.97;;;20.30;98.30;;;;;;5112225;27;20055;-39
2023/05/01 11:01:27;;;;;;;7.43;3.45;;;20.40;99.50;;;;;;5096940;28;20051;-41
2023/05/01 11:03:54;;;;;;;6.45;3.20;;;20.60;99.00;;;;;;5113606;27;20428;-37
2023/05/01 11:06:20;;;;;;;5.05;2.80;;;20.60;98.30;;;;;;5097163;28;20044;-45
2023/05/01 11:08:46;;;;;;;6.93;3.00;;;20.70;98.30;;;;;;5097965;28;20551;-43
2023/05/01 11:11:31;;;;;;;4.65;3.30;;;20.60;97.00;;;;;;5098201;28;20044;-37
2023/05/01 11:14:02;;;;;;;4.82;3.45;;;20.50;97.80;;;;;;5097860;28;20057;-36
2023/05/01 11:16:36;;;;;;;4.32;2.40;;;20.40;98.20;;;;;;5097601;28;20047;-48
2023/05/01 11:19:09;;;;;;;4.28;2.72;;;20.30;98.80;;;;;;5080884;28;20176;-41
2023/05/01 11:21:37;;;;;;;8.50;3.33;;;20.30;98.60;;;;;;5078885;28;20394;-45
2023/05/01 11:24:04;;;;;;;7.40;3.05;;;20.10;98.50;;;;;;5096901;28;20051;-41
2023/05/01 11:26:31;;;;;;;4.60;2.58;;;20.20;98.80;;;;;;5096362;28;20043;-41
2023/05/01 11:28:59;;;;;;;5.47;3.05;;;20.20;99.30;;;;;;5097074;28;20539;-38
2023/05/01 11:31:26;;;;;;;6.05;2.42;;;20.30;99.10;;;;;;5097038;28;20587;-41
2023/05/01 11:33:54;;;;;;;4.38;2.28;;;20.20;98.40;;;;;;5079833;28;20057;-37
2023/05/01 11:36:20;;;;;;;3.63;2.00;;;20.10;98.30;;;;;;5096556;28;20473;-40
2023/05/01 11:38:57;;;;;;;7.13;2.35;;;20.10;98.60;;;;;;5097531;27;20351;-39
2023/05/01 11:41:25;;;;;;;6.90;2.13;;;20.20;99.20;;;;;;5098440;28;20135;-43
2023/05/01 11:43:56;;;;;;;5.18;2.85;;;20.10;97.90;;;;;;5094998;28;20174;-39
2023/05/01 11:46:28;;;;;;;5.03;2.35;;;20.10;98.20;;;;;;5096743;28;20079;-36
2023/05/01 11:48:55;;;;;;;5.53;2.50;;;20.20;98.90;;;;;;5096907;28;20054;-43
2023/05/01 11:51:22;;;;;;;4.75;2.72;;;20.20;98.50;;;;;;5097126;28;20046;-43
2023/05/01 11:54:10;;;;;;;4.82;2.38;;;20.10;98.70;;;;;;5096609;28;20962;-40
2023/05/01 11:56:37;;;;;;;4.80;2.42;;;20.00;97.70;;;;;;5096074;28;20083;-45
2023/05/01 11:59:17;;;;;;;6.70;2.42;;;20.10;98.40;;;;;;5097402;28;20141;-37
2023/05/01 12:01:45;;;;;;;7.95;3.33;;;20.10;99.00;;;;;;5093669;28;20051;-39
2023/05/01 12:04:12;;;;;;;7.32;2.60;;;20.20;98.90;;;;;;5095205;28;20550;-40
2023/05/01 12:06:45;;;;;;;4.68;2.80;;;20.20;99.70;;;;;;5077080;28;20055;-43
2023/05/01 12:09:16;;;;;;;4.07;2.42;;;20.30;99.90;;;;;;5096096;28;20035;-42
2023/05/01 12:11:42;;;;;;;7.25;3.00;;;20.20;99.60;;;;;;5095908;28;20063;-40
2023/05/01 12:14:09;;;;;;;10.20;3.55;;;20.10;99.50;;;;;;5080314;28;20081;-39
2023/05/01 12:16:36;;;;;;;8.25;4.43;;;20.10;99.30;;;;;;5094653;28;20122;-44
2023/05/01 12:19:03;;;;;;;9.52;3.88;;;20.10;99.90;;;;;;5095834;28;20050;-42
2023/05/01 12:21:28;;;;;;;9.95;3.63;;;20.00;99.90;;;;;;5077420;28;20549;-45
2023/05/01 12:23:54;;;;;;;4.60;3.53;;;19.90;99.90;;;;;;5095861;28;20085;-42
2023/05/01 12:26:24;;;;;;;8.85;4.10;;;19.80;99.90;;;;;;5095694;28;20052;-42
2023/05/01 12:29:05;;;;;;;5.35;3.58;;;19.70;99.90;;;;;;5094536;28;20846;-42
2023/05/01 12:31:31;;;;;;;20.63;4.45;;;19.60;99.90;;;;;;5095847;28;20051;-42
2023/05/01 12:34:02;;;;;;;8.05;3.80;;;19.60;99.90;;;;;;5095589;28;20044;-40
2023/05/01 12:36:30;;;;;;;7.07;3.40;;;19.50;99.90;;;;;;5095716;28;20041;-47
2023/05/01 12:39:05;;;;;;;7.13;4.20;;;19.50;99.90;;;;;;5077874;28;20048;-38
2023/05/01 12:41:38;;;;;;;7.78;4.45;;;19.30;99.90;;;;;;5095491;28;20916;-40
2023/05/01 12:44:22;;;;;;;;;;;19.20;99.90;;;;;;5096173;28;20047;-42
2023/05/01 12:47:06;;;;;;;9.80;4.32;;;19.20;99.90;;;;;;5092093;28;19923;-39
2023/05/01 12:49:33;;;;;;;9.75;5.93;;;19.10;99.90;;;;;;5095419;28;20100;-43
2023/05/01 12:52:00;;;;;;;10.45;5.10;;;19.10;99.90;;;;;;5095181;28;20395;-44
2023/05/01 12:54:30;;;;;;;9.73;4.90;;;19.10;99.90;;;;;;5078284;28;20105;-40